createdAt,value
2023-03-04T00:00:54.529Z,43.62
2023-03-04T00:01:54.542Z,53.92
2023-03-04T00:02:55.641Z,55.73
2023-03-04T00:03:54.568Z,50.32
2023-03-04T00:04:54.696Z,49.82
2023-03-04T00:05:54.515Z,50.87
2023-03-04T00:06:54.495Z,56.21
2023-03-04T00:07:54.486Z,60.99
2023-03-04T00:08:54.539Z,50.09
2023-03-04T00:09:54.451Z,44.42
2023-03-04T00:10:54.503Z,53.69
2023-03-04T00:11:54.447Z,59.67
2023-03-04T00:12:54.482Z,56.18
2023-03-04T00:13:54.456Z,51.94
2023-03-04T00:14:54.515Z,57.44
2023-03-04T00:15:54.440Z,50.00
2023-03-04T00:16:54.399Z,44.62
2023-03-04T00:17:54.430Z,43.78
2023-03-04T00:18:54.428Z,49.60
2023-03-04T00:19:54.385Z,42.37
2023-03-04T00:20:54.388Z,43.87
2023-03-04T00:21:54.376Z,44.18
2023-03-04T00:22:54.395Z,48.51
2023-03-04T00:23:54.373Z,52.50
2023-03-04T00:24:54.377Z,54.80
2023-03-04T00:25:54.364Z,49.93
2023-03-04T00:26:54.359Z,43.83
2023-03-04T00:27:54.539Z,47.80
2023-03-04T00:28:54.324Z,46.32
2023-03-04T00:29:54.309Z,51.24
2023-03-04T00:30:54.296Z,51.71
2023-03-04T00:31:54.373Z,51.24
2023-03-04T00:32:54.427Z,51.06
2023-03-04T00:33:54.290Z,58.24
2023-03-04T00:34:54.326Z,54.82
2023-03-04T00:35:54.330Z,51.66
2023-03-04T00:36:54.268Z,54.15
2023-03-04T00:37:54.277Z,53.17
2023-03-04T00:38:54.267Z,51.59
2023-03-04T00:39:54.259Z,52.15
2023-03-04T00:40:54.858Z,47.34
2023-03-04T00:41:54.238Z,49.33
2023-03-04T00:42:54.224Z,46.80
2023-03-04T00:43:54.221Z,48.92
2023-03-04T00:44:54.187Z,50.44
2023-03-04T00:45:54.246Z,57.02
2023-03-04T00:46:54.195Z,58.02
2023-03-04T00:47:54.237Z,50.67
2023-03-04T00:48:54.170Z,54.56
2023-03-04T00:49:54.180Z,46.41
2023-03-04T00:50:54.260Z,43.96
2023-03-04T00:51:54.241Z,48.49
2023-03-04T00:52:54.183Z,48.24
2023-03-04T00:53:54.149Z,52.38
2023-03-04T00:54:54.153Z,52.65
2023-03-04T00:55:54.138Z,57.53
2023-03-04T00:56:54.149Z,53.17
2023-03-04T00:57:54.134Z,50.27
2023-03-04T00:58:54.094Z,53.75
2023-03-04T00:59:54.160Z,56.33
2023-03-04T01:00:54.086Z,46.38
2023-03-04T01:01:54.095Z,58.06
2023-03-04T01:02:54.084Z,45.09
2023-03-04T01:03:54.112Z,44.98
2023-03-04T01:04:54.059Z,46.02
2023-03-04T01:05:54.049Z,52.75
2023-03-04T01:06:54.028Z,43.78
2023-03-04T01:07:54.021Z,43.69
2023-03-04T01:08:54.035Z,55.93
2023-03-04T01:09:54.001Z,45.15
2023-03-04T01:10:54.010Z,51.25
2023-03-04T01:11:53.997Z,50.83
2023-03-04T01:12:53.987Z,50.20
2023-03-04T01:13:53.995Z,49.05
2023-03-04T01:14:53.997Z,43.37
2023-03-04T01:15:53.961Z,47.85
2023-03-04T01:16:53.993Z,46.67
2023-03-04T01:17:54.008Z,49.77
2023-03-04T01:18:53.930Z,42.18
2023-03-04T01:19:53.938Z,48.46
2023-03-04T01:20:53.927Z,42.10
2023-03-04T01:21:54.941Z,42.15
2023-03-04T01:22:53.909Z,42.01
2023-03-04T01:23:53.886Z,42.96
2023-03-04T01:24:53.899Z,42.85
2023-03-04T01:25:53.915Z,45.27
2023-03-04T01:26:53.929Z,53.77
2023-03-04T01:27:53.928Z,42.26
2023-03-04T01:28:53.856Z,41.89
2023-03-04T01:29:53.842Z,44.09
2023-03-04T01:30:53.886Z,48.78
2023-03-04T01:31:53.868Z,45.05
2023-03-04T01:32:53.862Z,48.42
2023-03-04T01:33:53.813Z,42.68
2023-03-04T01:34:53.804Z,43.87
2023-03-04T01:35:53.849Z,44.31
2023-03-04T01:36:53.799Z,49.76
2023-03-04T01:37:53.806Z,44.43
2023-03-04T01:38:53.768Z,56.21
2023-03-04T01:39:53.798Z,48.58
2023-03-04T01:40:53.767Z,42.15
2023-03-04T01:41:53.765Z,59.24
2023-03-04T01:42:53.752Z,44.92
2023-03-04T01:43:53.724Z,49.46
2023-03-04T01:44:53.762Z,54.37
2023-03-04T01:45:53.732Z,53.41
2023-03-04T01:46:53.740Z,55.34
2023-03-04T01:47:53.797Z,57.40
2023-03-04T01:48:54.039Z,46.84
2023-03-04T01:49:53.686Z,51.91
2023-03-04T01:50:53.792Z,47.31
2023-03-04T01:51:53.681Z,55.60
2023-03-04T01:52:53.715Z,41.61
2023-03-04T01:53:53.707Z,47.77
2023-03-04T01:54:53.681Z,49.08
2023-03-04T01:55:53.658Z,53.22
2023-03-04T01:56:53.637Z,42.38
2023-03-04T01:57:53.674Z,48.37
2023-03-04T01:58:53.708Z,47.04
2023-03-04T01:59:53.605Z,42.44
2023-03-04T02:00:53.615Z,52.69
2023-03-04T02:01:53.652Z,49.27
2023-03-04T02:02:53.605Z,53.83
2023-03-04T02:03:53.656Z,46.85
2023-03-04T02:04:53.582Z,48.96
2023-03-04T02:05:53.595Z,50.51
2023-03-04T02:06:53.613Z,47.24
2023-03-04T02:07:53.559Z,43.77
2023-03-04T02:08:53.604Z,43.74
2023-03-04T02:09:53.533Z,49.54
2023-03-04T02:10:53.544Z,48.15
2023-03-04T02:11:53.528Z,49.47
2023-03-04T02:12:53.518Z,46.44
2023-03-04T02:13:53.518Z,54.29
2023-03-04T02:14:53.518Z,47.94
2023-03-04T02:15:53.520Z,57.47
2023-03-04T02:16:53.478Z,49.97
2023-03-04T02:17:53.475Z,41.98
2023-03-04T02:18:54.060Z,54.40
2023-03-04T02:19:53.562Z,42.63
2023-03-04T02:20:53.446Z,46.18
2023-03-04T02:21:53.459Z,45.13
2023-03-04T02:22:54.242Z,43.15
2023-03-04T02:23:53.554Z,53.29
2023-03-04T02:24:53.431Z,51.21
2023-03-04T02:25:53.443Z,49.02
2023-03-04T02:26:53.421Z,50.72
2023-03-04T02:27:53.401Z,47.76
2023-03-04T02:28:53.416Z,42.08
2023-03-04T02:29:53.391Z,49.40
2023-03-04T02:30:53.410Z,43.06
2023-03-04T02:31:53.378Z,49.76
2023-03-04T02:32:53.356Z,48.86
2023-03-04T02:33:53.357Z,42.96
2023-03-04T02:34:54.173Z,53.97
2023-03-04T02:35:53.410Z,51.66
2023-03-04T02:36:53.326Z,45.10
2023-03-04T02:37:53.334Z,44.35
2023-03-04T02:38:53.324Z,44.98
2023-03-04T02:39:53.302Z,49.00
2023-03-04T02:40:53.301Z,42.84
2023-03-04T02:41:53.323Z,48.66
2023-03-04T02:42:53.702Z,42.32
2023-03-04T02:43:53.279Z,48.84
2023-03-04T02:44:53.271Z,45.41
2023-03-04T02:45:53.258Z,42.77
2023-03-04T02:46:53.356Z,42.64
2023-03-04T02:47:53.721Z,42.67
2023-03-04T02:48:53.256Z,43.69
2023-03-04T02:49:53.253Z,44.04
2023-03-04T02:50:53.231Z,53.40
2023-03-04T02:51:53.288Z,50.55
2023-03-04T02:52:53.217Z,47.51
2023-03-04T02:53:53.299Z,42.23
2023-03-04T02:54:53.198Z,46.83
2023-03-04T02:55:53.201Z,45.22
2023-03-04T02:56:54.176Z,47.80
2023-03-04T02:57:53.194Z,42.18
2023-03-04T02:58:53.194Z,41.90
2023-03-04T02:59:53.175Z,41.59
2023-03-04T03:00:53.157Z,41.61
2023-03-04T03:01:53.330Z,41.48
2023-03-04T03:02:53.194Z,41.42
2023-03-04T03:03:53.177Z,43.38
2023-03-04T03:04:53.114Z,43.98
2023-03-04T03:05:53.142Z,43.88
2023-03-04T03:06:53.121Z,43.54
2023-03-04T03:07:53.225Z,44.54
2023-03-04T03:08:53.104Z,44.30
2023-03-04T03:09:53.087Z,42.89
2023-03-04T03:10:53.078Z,53.81
2023-03-04T03:11:53.101Z,50.45
2023-03-04T03:12:53.116Z,51.19
2023-03-04T03:13:53.114Z,49.74
2023-03-04T03:14:53.078Z,51.81
2023-03-04T03:15:53.116Z,50.17
2023-03-04T03:16:53.043Z,51.15
2023-03-04T03:17:53.029Z,41.72
2023-03-04T03:18:53.043Z,48.83
2023-03-04T03:19:53.089Z,47.13
2023-03-04T03:20:53.000Z,42.18
2023-03-04T03:21:52.996Z,41.35
2023-03-04T03:22:52.978Z,43.04
2023-03-04T03:23:52.994Z,44.26
2023-03-04T03:24:53.022Z,45.83
2023-03-04T03:25:52.974Z,50.01
2023-03-04T03:26:52.966Z,54.61
2023-03-04T03:27:53.066Z,48.55
2023-03-04T03:28:52.950Z,48.64
2023-03-04T03:29:52.928Z,53.07
2023-03-04T03:30:53.058Z,43.63
2023-03-04T03:31:53.017Z,44.74
2023-03-04T03:32:52.963Z,58.16
2023-03-04T03:33:52.898Z,43.96
2023-03-04T03:34:53.032Z,42.57
2023-03-04T03:35:52.989Z,41.28
2023-03-04T03:36:52.911Z,53.72
2023-03-04T03:37:52.992Z,42.93
2023-03-04T03:38:52.885Z,51.58
2023-03-04T03:39:52.867Z,47.50
2023-03-04T03:40:52.837Z,47.82
2023-03-04T03:41:52.881Z,47.76
2023-03-04T03:42:52.841Z,47.82
2023-03-04T03:43:53.500Z,51.34
2023-03-04T03:44:52.806Z,44.14
2023-03-04T03:45:52.874Z,47.30
2023-03-04T03:46:52.812Z,41.36
2023-03-04T04:03:53.302Z,42.70
2023-03-04T04:04:53.300Z,43.19
2023-03-04T04:05:53.278Z,48.15
2023-03-04T04:06:53.294Z,42.29
2023-03-04T04:07:54.138Z,42.57
2023-03-04T04:08:53.280Z,48.34
2023-03-04T04:09:53.237Z,58.01
2023-03-04T04:10:53.250Z,49.49
2023-03-04T04:11:53.247Z,53.46
2023-03-04T04:12:53.247Z,50.36
2023-03-04T04:13:53.236Z,43.69
2023-03-04T04:14:53.217Z,51.06
2023-03-04T04:15:54.350Z,52.98
2023-03-04T04:16:54.364Z,47.13
2023-03-04T04:17:54.336Z,44.43
2023-03-04T04:18:54.350Z,51.93
2023-03-04T04:19:54.324Z,51.21
2023-03-04T04:20:54.344Z,50.48
2023-03-04T04:21:54.319Z,61.30
2023-03-04T04:22:54.328Z,43.52
2023-03-04T04:23:54.292Z,49.87
2023-03-04T04:24:55.264Z,57.72
2023-03-04T04:25:54.278Z,43.26
2023-03-04T04:27:26.962Z,48.76
2023-03-04T04:27:54.243Z,59.59
2023-03-04T04:28:54.256Z,63.84
2023-03-04T04:29:54.247Z,46.06
2023-03-04T04:30:54.277Z,59.64
2023-03-04T04:31:54.240Z,61.11
2023-03-04T04:32:54.232Z,49.87
2023-03-04T04:33:54.217Z,53.80
2023-03-04T04:34:54.204Z,54.78
2023-03-04T04:36:26.509Z,58.70
2023-03-04T04:37:27.006Z,64.80
2023-03-04T04:37:54.200Z,61.38
2023-03-04T04:38:54.268Z,55.04
2023-03-04T04:39:54.181Z,61.85
2023-03-04T04:40:54.144Z,54.26
2023-03-04T04:41:54.187Z,60.49
2023-03-04T04:42:54.191Z,59.31
2023-03-04T04:43:55.087Z,48.17
2023-03-04T04:44:54.139Z,42.31
2023-03-04T04:45:54.187Z,44.39
2023-03-04T04:46:54.106Z,57.20
2023-03-04T04:47:54.139Z,46.65
2023-03-04T04:48:54.102Z,52.05
2023-03-04T04:49:54.113Z,60.49
2023-03-04T04:50:54.066Z,45.99
2023-03-04T04:51:54.089Z,56.55
2023-03-04T04:52:54.133Z,47.89
2023-03-04T04:53:54.059Z,42.50
2023-03-04T04:54:54.054Z,53.15
2023-03-04T04:55:54.029Z,56.49
2023-03-04T04:56:54.036Z,43.46
2023-03-04T04:57:54.022Z,46.21
2023-03-04T04:58:54.015Z,62.32
2023-03-04T04:59:54.002Z,50.81
2023-03-04T05:00:54.011Z,58.45
2023-03-04T05:01:54.091Z,61.84
2023-03-04T05:02:54.007Z,58.47
2023-03-04T05:03:53.996Z,56.59
2023-03-04T05:04:53.971Z,52.72
2023-03-04T05:05:53.947Z,54.68
2023-03-04T05:06:53.948Z,53.62
2023-03-04T05:07:54.037Z,42.13
2023-03-04T05:08:53.990Z,42.49
2023-03-04T05:09:54.205Z,43.95
2023-03-04T05:10:53.938Z,46.85
2023-03-04T05:11:53.917Z,53.17
2023-03-04T05:12:53.902Z,53.71
2023-03-04T05:13:53.903Z,53.35
2023-03-04T05:14:53.926Z,55.77
2023-03-04T05:15:54.104Z,51.22
2023-03-04T05:16:53.886Z,55.41
2023-03-04T05:17:53.901Z,50.71
2023-03-04T05:18:53.873Z,50.86
2023-03-04T05:19:53.906Z,57.06
2023-03-04T05:20:53.845Z,44.23
2023-03-04T05:21:53.935Z,48.69
2023-03-04T05:22:53.850Z,54.48
2023-03-04T05:23:53.843Z,51.49
2023-03-04T05:24:53.851Z,54.18
2023-03-04T05:25:55.480Z,59.31
2023-03-04T05:26:53.902Z,49.64
2023-03-04T05:27:53.978Z,50.32
2023-03-04T05:28:53.792Z,49.04
2023-03-04T05:29:53.804Z,49.66
2023-03-04T05:30:55.124Z,51.15
2023-03-04T05:31:53.774Z,54.47
2023-03-04T05:32:53.770Z,58.76
2023-03-04T05:33:53.783Z,49.27
2023-03-04T05:34:53.871Z,54.12
2023-03-04T05:35:53.838Z,58.12
2023-03-04T05:36:53.759Z,43.86
2023-03-04T05:37:53.746Z,43.08
2023-03-04T05:38:53.759Z,57.78
2023-03-04T05:39:53.745Z,52.52
2023-03-04T05:40:53.759Z,48.42
2023-03-04T05:41:53.734Z,53.28
2023-03-04T05:42:53.741Z,55.13
2023-03-04T05:43:53.705Z,59.04
2023-03-04T05:44:53.711Z,50.21
2023-03-04T05:45:53.713Z,44.92
2023-03-04T05:46:53.811Z,51.78
2023-03-04T05:47:53.716Z,54.88
2023-03-04T05:48:53.639Z,46.63
2023-03-04T05:49:53.722Z,50.87
2023-03-04T05:50:53.670Z,54.85
2023-03-04T05:51:53.669Z,53.53
2023-03-04T05:52:53.643Z,63.82
2023-03-04T05:53:53.636Z,52.48
2023-03-04T05:54:53.646Z,50.74
2023-03-04T05:55:53.603Z,59.06
2023-03-04T05:56:53.603Z,55.32
2023-03-04T05:57:53.610Z,51.59
2023-03-04T05:58:53.605Z,51.41
2023-03-04T05:59:53.735Z,52.40
2023-03-04T06:00:53.579Z,47.36
2023-03-04T06:01:53.598Z,60.35
2023-03-04T06:02:53.621Z,55.40
2023-03-04T06:03:53.612Z,49.14
2023-03-04T06:04:53.541Z,55.11
2023-03-04T06:05:53.568Z,42.84
2023-03-04T06:06:53.571Z,49.98
2023-03-04T06:07:53.534Z,52.36
2023-03-04T06:08:53.495Z,50.32
2023-03-04T06:09:53.502Z,57.93
2023-03-04T06:10:53.527Z,52.80
2023-03-04T06:11:53.513Z,44.29
2023-03-04T06:12:53.512Z,54.31
2023-03-04T06:13:53.509Z,50.08
2023-03-04T06:14:53.472Z,51.63
2023-03-04T06:15:53.525Z,61.94
2023-03-04T06:16:53.472Z,54.20
2023-03-04T06:17:53.515Z,62.88
2023-03-04T06:18:53.450Z,52.91
2023-03-04T06:19:53.423Z,50.09
2023-03-04T06:20:53.411Z,52.48
2023-03-04T06:21:53.439Z,54.10
2023-03-04T06:22:53.439Z,61.06
2023-03-04T06:23:53.432Z,60.02
2023-03-04T06:24:53.410Z,55.68
2023-03-04T06:25:53.396Z,65.22
2023-03-04T06:26:53.417Z,59.96
2023-03-04T06:27:55.146Z,52.31
2023-03-04T06:28:53.340Z,54.68
2023-03-04T06:29:53.443Z,62.95
2023-03-04T06:30:53.418Z,59.65
2023-03-04T06:31:53.405Z,54.88
2023-03-04T06:32:53.346Z,55.05
2023-03-04T06:33:53.308Z,53.95
2023-03-04T06:34:53.350Z,49.28
2023-03-04T06:35:53.390Z,63.27
2023-03-04T06:36:53.336Z,65.29
2023-03-04T06:37:53.371Z,56.63
2023-03-04T06:38:53.276Z,55.70
2023-03-04T06:39:53.280Z,57.53
2023-03-04T06:40:55.338Z,64.94
2023-03-04T06:41:53.274Z,45.58
2023-03-04T06:42:53.261Z,63.25
2023-03-04T06:43:53.241Z,59.73
2023-03-04T06:44:53.291Z,57.20
2023-03-04T06:45:53.290Z,57.21
2023-03-04T06:46:53.310Z,53.61
2023-03-04T06:47:53.234Z,60.43
2023-03-04T06:48:53.197Z,56.46
2023-03-04T06:49:53.211Z,63.94
2023-03-04T06:50:53.211Z,62.65
2023-03-04T06:51:53.223Z,59.08
2023-03-04T06:52:53.235Z,59.23
2023-03-04T06:53:53.177Z,59.45
2023-03-04T06:54:53.292Z,63.03
2023-03-04T06:55:53.241Z,54.86
2023-03-04T06:56:53.160Z,59.76
2023-03-04T06:57:53.173Z,62.30
2023-03-04T06:58:53.141Z,48.19
2023-03-04T06:59:53.133Z,55.45
2023-03-04T07:00:53.204Z,60.61
2023-03-04T07:01:53.092Z,50.39
2023-03-04T07:02:55.125Z,56.90
2023-03-04T07:03:54.122Z,59.61
2023-03-04T07:04:53.092Z,58.60
2023-03-04T07:05:53.148Z,57.60
2023-03-04T07:06:53.076Z,57.43
2023-03-04T07:07:53.124Z,55.93
2023-03-04T07:08:53.084Z,60.18
2023-03-04T07:09:53.069Z,60.08
2023-03-04T07:10:53.039Z,61.29
2023-03-04T07:11:53.048Z,64.39
2023-03-04T07:12:53.189Z,60.06
2023-03-04T07:13:53.117Z,63.49
2023-03-04T07:14:53.034Z,59.91
2023-03-04T07:15:53.015Z,65.02
2023-03-04T07:16:52.999Z,61.35
2023-03-04T07:17:52.997Z,62.71
2023-03-04T07:18:52.993Z,66.42
2023-03-04T07:19:53.009Z,62.51
2023-03-04T07:20:52.970Z,57.05
2023-03-04T07:21:52.986Z,65.97
2023-03-04T07:22:53.009Z,66.08
2023-03-04T07:23:52.973Z,60.87
2023-03-04T07:24:52.972Z,58.30
2023-03-04T07:25:52.922Z,60.71
2023-03-04T07:26:52.906Z,53.74
2023-03-04T07:27:53.927Z,64.93
2023-03-04T07:28:52.932Z,56.53
2023-03-04T07:29:52.932Z,63.67
2023-03-04T07:30:52.930Z,64.91
2023-03-04T07:31:53.832Z,60.03
2023-03-04T07:32:53.867Z,58.08
2023-03-04T07:33:52.892Z,58.43
2023-03-04T07:34:53.506Z,65.04
2023-03-04T07:35:52.988Z,57.80
2023-03-04T07:36:52.867Z,65.74
2023-03-04T07:37:52.852Z,56.18
2023-03-04T07:38:52.882Z,64.90
2023-03-04T07:39:52.893Z,61.35
2023-03-04T07:40:52.805Z,63.56
2023-03-04T07:41:52.817Z,56.68
2023-03-04T07:42:52.836Z,65.87
2023-03-04T07:43:52.837Z,68.05
2023-03-04T07:44:52.794Z,61.24
2023-03-04T07:45:52.867Z,57.26
2023-03-04T07:46:52.779Z,54.59
2023-03-04T07:47:52.841Z,69.39
2023-03-04T07:48:52.821Z,58.78
2023-03-04T07:49:52.758Z,60.42
2023-03-04T07:50:52.775Z,62.24
2023-03-04T07:51:52.734Z,66.89
2023-03-04T07:52:52.752Z,68.14
2023-03-04T07:53:52.810Z,65.20
2023-03-04T07:54:52.785Z,62.26
2023-03-04T07:55:52.754Z,61.97
2023-03-04T07:56:52.682Z,60.69
2023-03-04T07:57:52.704Z,63.91
2023-03-04T07:58:52.701Z,61.87
2023-03-04T07:59:52.679Z,64.81
2023-03-04T08:00:52.698Z,62.23
2023-03-04T08:01:52.659Z,63.71
2023-03-04T08:02:52.688Z,64.88
2023-03-04T08:03:52.703Z,59.08
2023-03-04T08:04:52.650Z,64.03
2023-03-04T08:05:52.636Z,59.36
2023-03-04T08:06:52.625Z,69.70
2023-03-04T08:07:52.646Z,61.51
2023-03-04T08:08:52.632Z,66.07
2023-03-04T08:09:53.140Z,64.51
2023-03-04T08:10:52.603Z,59.95
2023-03-04T08:11:52.585Z,62.11
2023-03-04T08:12:52.715Z,63.49
2023-03-04T08:13:52.592Z,58.93
2023-03-04T08:14:52.589Z,66.25
2023-03-04T08:15:52.603Z,65.51
2023-03-04T08:16:52.574Z,56.02
2023-03-04T08:17:52.532Z,57.67
2023-03-04T08:18:52.540Z,62.64
2023-03-04T08:19:52.665Z,67.78
2023-03-04T08:20:52.560Z,62.73
2023-03-04T08:21:52.534Z,68.58
2023-03-04T08:22:52.540Z,66.06
2023-03-04T08:23:52.597Z,64.21
2023-03-04T08:24:52.540Z,64.04
2023-03-04T08:25:52.594Z,62.67
2023-03-04T08:26:52.468Z,67.05
2023-03-04T08:27:52.468Z,64.58
2023-03-04T08:28:52.451Z,64.49
2023-03-04T08:29:52.472Z,65.65
2023-03-04T08:30:52.507Z,64.85
2023-03-04T08:31:52.550Z,65.99
2023-03-04T08:32:52.459Z,68.54
2023-03-04T08:33:52.469Z,58.71
2023-03-04T08:34:52.442Z,66.80
2023-03-04T08:35:52.485Z,59.90
2023-03-04T08:36:52.439Z,65.67
2023-03-04T08:37:52.380Z,67.04
2023-03-04T08:38:52.385Z,64.31
2023-03-04T08:39:52.373Z,63.31
2023-03-04T08:40:52.465Z,59.09
2023-03-04T08:41:52.360Z,64.29
2023-03-04T08:42:52.389Z,59.31
2023-03-04T08:43:52.332Z,64.31
2023-03-04T08:44:52.331Z,65.55
2023-03-04T08:45:52.370Z,62.00
2023-03-04T08:46:52.319Z,69.29
2023-03-04T08:47:52.342Z,55.67
2023-03-04T08:48:52.324Z,62.55
2023-03-04T08:49:52.305Z,67.75
2023-03-04T08:50:52.360Z,69.40
2023-03-04T08:51:52.539Z,66.76
2023-03-04T08:52:52.280Z,66.75
2023-03-04T08:53:52.398Z,67.00
2023-03-04T08:54:52.281Z,67.45
2023-03-04T08:55:52.362Z,68.79
2023-03-04T08:56:52.374Z,66.58
2023-03-04T08:57:52.229Z,67.96
2023-03-04T08:58:52.261Z,63.50
2023-03-04T08:59:52.237Z,61.45
2023-03-04T09:00:52.226Z,68.14
2023-03-04T09:01:52.325Z,66.97
2023-03-04T09:02:52.202Z,67.71
2023-03-04T09:03:52.288Z,65.64
2023-03-04T09:04:52.179Z,64.35
2023-03-04T09:05:52.161Z,63.61
2023-03-04T09:06:54.078Z,68.81
2023-03-04T09:07:53.164Z,68.11
2023-03-04T09:08:53.193Z,67.82
2023-03-04T09:09:52.217Z,63.08
2023-03-04T09:10:52.139Z,61.89
2023-03-04T09:11:52.207Z,66.15
2023-03-04T09:12:52.129Z,65.59
2023-03-04T09:13:52.265Z,67.04
2023-03-04T09:15:08.397Z,65.42
2023-03-04T09:15:54.274Z,61.49
2023-03-04T09:16:52.114Z,63.78
2023-03-04T09:17:52.108Z,64.64
2023-03-04T09:18:52.269Z,68.25
2023-03-04T09:19:52.094Z,60.68
2023-03-04T09:20:52.129Z,66.48
2023-03-04T09:21:52.109Z,65.43
2023-03-04T09:22:52.061Z,65.54
2023-03-04T09:23:52.132Z,62.29
2023-03-04T09:24:52.049Z,67.82
2023-03-04T09:25:52.077Z,66.47
2023-03-04T09:26:52.036Z,63.68
2023-03-04T09:27:52.078Z,65.32
2023-03-04T09:28:52.048Z,71.61
2023-03-04T09:29:52.006Z,60.62
2023-03-04T09:30:51.990Z,66.00
2023-03-04T09:31:51.983Z,65.96
2023-03-04T09:32:52.006Z,68.89
2023-03-04T09:33:52.044Z,63.94
2023-03-04T09:34:51.970Z,65.90
2023-03-04T09:35:52.003Z,66.56
2023-03-04T09:36:51.968Z,66.58
2023-03-04T09:38:24.571Z,69.85
2023-03-04T09:38:51.944Z,68.74
2023-03-04T09:40:23.939Z,67.23
2023-03-04T09:40:51.958Z,55.70
2023-03-04T09:41:51.921Z,67.83
2023-03-04T09:42:52.535Z,69.97
2023-03-04T09:43:51.898Z,62.60
2023-03-04T09:44:51.927Z,63.81
2023-03-04T09:45:51.868Z,66.37
2023-03-04T09:46:51.984Z,65.29
2023-03-04T09:47:51.859Z,67.33
2023-03-04T09:48:51.874Z,64.23
2023-03-04T09:49:51.996Z,70.12
2023-03-04T09:50:51.850Z,65.88
2023-03-04T09:51:51.830Z,67.58
2023-03-04T09:52:51.841Z,67.50
2023-03-04T09:53:51.829Z,63.94
2023-03-04T09:54:51.814Z,64.04
2023-03-04T09:55:51.783Z,67.90
2023-03-04T09:56:51.821Z,65.38
2023-03-04T09:57:51.779Z,66.95
2023-03-04T09:58:51.760Z,65.06
2023-03-04T09:59:51.784Z,69.04
2023-03-04T10:00:52.046Z,66.39
2023-03-04T10:01:51.769Z,64.64
2023-03-04T10:02:51.827Z,68.41
2023-03-04T10:03:51.889Z,64.65
2023-03-04T10:04:51.832Z,69.08
2023-03-04T10:06:24.685Z,66.85
2023-03-04T10:07:24.193Z,58.18
2023-03-04T10:07:51.684Z,64.21
2023-03-04T10:08:51.698Z,64.55
2023-03-04T10:09:51.725Z,65.94
2023-03-04T10:10:51.739Z,66.93
2023-03-04T10:11:51.672Z,64.79
2023-03-04T10:12:51.677Z,68.85
2023-03-04T10:13:51.647Z,63.80
2023-03-04T10:14:51.633Z,65.24
2023-03-04T10:15:51.698Z,67.64
2023-03-04T10:16:51.637Z,63.98
2023-03-04T10:17:51.642Z,65.45
2023-03-04T10:18:51.610Z,65.97
2023-03-04T10:19:51.677Z,67.69
2023-03-04T10:20:51.621Z,66.46
2023-03-04T10:21:51.600Z,53.31
2023-03-04T10:22:51.580Z,61.33
2023-03-04T10:23:52.316Z,64.88
2023-03-04T10:24:51.561Z,68.30
2023-03-04T10:25:51.549Z,68.04
2023-03-04T10:27:23.476Z,66.60
2023-03-04T10:27:51.610Z,70.41
2023-03-04T10:28:51.533Z,64.37
2023-03-04T10:29:51.529Z,60.13
2023-03-04T10:30:51.500Z,67.21
2023-03-04T10:31:51.592Z,63.49
2023-03-04T10:32:51.519Z,66.99
2023-03-04T10:33:51.470Z,61.68
2023-03-04T10:34:51.485Z,68.66
2023-03-04T10:35:51.464Z,65.81
2023-03-04T10:36:51.451Z,56.33
2023-03-04T10:37:51.458Z,65.04
2023-03-04T10:38:51.437Z,66.57
2023-03-04T10:39:51.426Z,66.59
2023-03-04T10:40:51.441Z,65.57
2023-03-04T10:41:51.473Z,68.49
2023-03-04T10:42:51.395Z,67.00
2023-03-04T10:43:51.411Z,66.29
2023-03-04T10:44:51.375Z,65.77
2023-03-04T10:45:51.418Z,61.00
2023-03-04T10:46:51.369Z,69.67
2023-03-04T10:47:51.420Z,67.76
2023-03-04T10:48:51.374Z,61.72
2023-03-04T10:49:52.300Z,66.47
2023-03-04T10:50:51.341Z,63.24
2023-03-04T10:51:51.345Z,63.80
2023-03-04T10:52:51.333Z,66.39
2023-03-04T10:53:51.305Z,59.99
2023-03-04T10:54:51.319Z,63.87
2023-03-04T10:55:51.310Z,62.59
2023-03-04T10:56:51.296Z,66.99
2023-03-04T10:57:51.302Z,66.66
2023-03-04T10:58:51.273Z,64.27
2023-03-04T10:59:51.291Z,64.21
2023-03-04T11:00:51.271Z,66.52
2023-03-04T11:01:51.270Z,64.54
2023-03-04T11:02:51.225Z,65.37
2023-03-04T11:03:51.277Z,63.98
2023-03-04T11:04:51.282Z,65.95
2023-03-04T11:05:51.215Z,68.07
2023-03-04T11:06:51.211Z,60.60
2023-03-04T11:07:56.733Z,62.03
2023-03-04T11:08:53.188Z,68.17
2023-03-04T11:09:51.242Z,65.26
2023-03-04T11:10:51.214Z,60.13
2023-03-04T11:11:51.212Z,65.92
2023-03-04T11:12:51.174Z,62.69
2023-03-04T11:13:51.154Z,68.55
2023-03-04T11:14:51.159Z,68.23
2023-03-04T11:15:51.178Z,68.93
2023-03-04T11:16:51.165Z,66.34
2023-03-04T11:17:51.130Z,65.86
2023-03-04T11:18:51.136Z,66.07
2023-03-04T11:19:51.119Z,68.43
2023-03-04T11:20:51.109Z,68.69
2023-03-04T11:21:51.716Z,68.34
2023-03-04T11:22:51.076Z,66.54
2023-03-04T11:23:51.084Z,65.90
2023-03-04T11:24:51.099Z,65.28
2023-03-04T11:25:51.079Z,65.56
2023-03-04T11:26:51.068Z,66.60
2023-03-04T11:27:51.069Z,66.74
2023-03-04T11:28:51.029Z,66.71
2023-03-04T11:29:51.032Z,65.48
2023-03-04T11:30:51.059Z,60.39
2023-03-04T11:31:51.044Z,65.49
2023-03-04T11:32:51.040Z,65.50
2023-03-04T11:33:51.046Z,63.15
2023-03-04T11:34:51.026Z,67.20
2023-03-04T11:35:50.982Z,57.88
2023-03-04T11:36:51.248Z,68.54
2023-03-04T11:37:50.993Z,64.07
2023-03-04T11:38:50.964Z,66.31
2023-03-04T11:39:50.984Z,62.41
2023-03-04T11:40:50.954Z,68.48
2023-03-04T11:41:50.956Z,57.83
2023-03-04T11:42:50.995Z,56.09
2023-03-04T11:43:50.963Z,62.74
2023-03-04T11:44:50.959Z,64.27
2023-03-04T11:45:50.950Z,68.39
2023-03-04T11:46:50.933Z,68.47
2023-03-04T11:47:51.067Z,64.39
2023-03-04T11:48:50.965Z,64.56
2023-03-04T11:49:50.915Z,64.33
2023-03-04T11:50:50.915Z,58.06
2023-03-04T11:51:50.899Z,66.69
2023-03-04T11:52:50.936Z,60.35
2023-03-04T11:53:50.927Z,68.57
2023-03-04T11:54:50.897Z,66.90
2023-03-04T11:55:50.887Z,65.20
2023-03-04T11:56:50.848Z,62.10
2023-03-04T11:57:50.863Z,63.00
2023-03-04T11:58:50.879Z,66.39
2023-03-04T11:59:50.839Z,68.19
2023-03-04T12:00:50.842Z,68.30
2023-03-04T12:01:50.827Z,64.92
2023-03-04T12:02:50.808Z,64.40
2023-03-04T12:03:50.924Z,63.50
2023-03-04T12:04:50.838Z,64.70
2023-03-04T12:05:50.795Z,61.87
2023-03-04T12:06:50.786Z,63.14
2023-03-04T12:07:50.767Z,62.33
2023-03-04T12:08:50.766Z,67.97
2023-03-04T12:09:50.767Z,67.97
2023-03-04T12:10:50.964Z,65.71
2023-03-04T12:11:50.774Z,63.24
2023-03-04T12:12:50.718Z,65.17
2023-03-04T12:13:50.725Z,61.14
2023-03-04T12:14:50.712Z,66.63
2023-03-04T12:15:50.771Z,67.33
2023-03-04T12:16:50.693Z,56.27
2023-03-04T12:17:50.767Z,60.12
2023-03-04T12:18:50.834Z,58.07
2023-03-04T12:19:50.671Z,64.90
2023-03-04T12:20:50.670Z,64.61
2023-03-04T12:21:50.656Z,67.76
2023-03-04T12:22:50.650Z,66.11
2023-03-04T12:23:50.700Z,56.66
2023-03-04T12:24:50.650Z,66.78
2023-03-04T12:25:50.661Z,66.41
2023-03-04T12:26:50.636Z,63.43
2023-03-04T12:27:50.613Z,68.40
2023-03-04T12:28:50.622Z,68.93
2023-03-04T12:29:50.609Z,62.92
2023-03-04T12:30:50.645Z,64.27
2023-03-04T12:31:50.628Z,66.40
2023-03-04T12:32:50.622Z,65.20
2023-03-04T12:33:50.587Z,65.84
2023-03-04T12:34:50.558Z,65.70
2023-03-04T12:35:50.771Z,62.14
2023-03-04T12:36:50.559Z,62.12
2023-03-04T12:37:50.558Z,62.34
2023-03-04T12:38:50.530Z,62.76
2023-03-04T12:39:50.683Z,55.03
2023-03-04T12:40:50.599Z,67.86
2023-03-04T12:41:50.506Z,64.15
2023-03-04T12:42:50.543Z,66.82
2023-03-04T12:43:50.544Z,65.92
2023-03-04T12:44:50.500Z,59.50
2023-03-04T12:45:50.545Z,66.37
2023-03-04T12:46:50.538Z,60.35
2023-03-04T12:47:50.497Z,58.48
2023-03-04T12:48:50.482Z,67.99
2023-03-04T12:49:50.486Z,61.72
2023-03-04T12:50:50.468Z,56.32
2023-03-04T12:51:50.430Z,62.40
2023-03-04T12:52:50.432Z,62.34
2023-03-04T12:53:50.436Z,67.02
2023-03-04T12:54:50.453Z,66.14
2023-03-04T12:55:50.422Z,65.25
2023-03-04T12:56:50.418Z,64.10
2023-03-04T12:57:50.391Z,67.24
2023-03-04T12:58:50.407Z,64.07
2023-03-04T12:59:50.392Z,54.54
2023-03-04T13:00:50.409Z,65.75
2023-03-04T13:01:50.380Z,62.28
2023-03-04T13:02:50.440Z,67.18
2023-03-04T13:03:50.386Z,68.10
2023-03-04T13:04:50.370Z,61.68
2023-03-04T13:05:50.345Z,64.31
2023-03-04T13:06:50.369Z,60.92
2023-03-04T13:07:50.310Z,64.55
2023-03-04T13:08:50.340Z,66.10